This is the latest recevied weather packets stored in our database for station/object NW1E. If no packets are shown the sender has not sent any weather packets the latest 10 day(s).
| Time | Temp. | Humidity | Pressure | Rain* | Wind** | Luminosity | Snow |
|---|---|---|---|---|---|---|---|
| 1777253351 | 23.89° C | 79% | 1011.9 hPa | 0 mm | - | 0 W/m² | - |
| 1777253050 | 24.44° C | 79% | 1011.9 hPa | 0 mm | - | 0 W/m² | - |
| 1777250322 | 25.56° C | 75% | 1011.6 hPa | 0 mm | - | 0 W/m² | - |
| 1777249420 | 25.56° C | 76% | 1011.5 hPa | 0 mm | - | 0 W/m² | - |
| 1777249118 | 25.56° C | 76% | 1011.4 hPa | 0 mm | - | 0 W/m² | - |
| 1777247919 | 26.11° C | 75% | 1011.2 hPa | 0 mm | - | 0 W/m² | - |
| 1777247019 | 26.67° C | 74% | 1011.2 hPa | 0 mm | - | 14 W/m² | - |
| 1777246718 | 26.67° C | 73% | 1011.1 hPa | 0 mm | - | 18 W/m² | - |
| 1777244618 | 27.78° C | 72% | 1011.2 hPa | 0 mm | - | 65 W/m² | - |
| 1777244209 | 27.78° C | 71% | 1011.1 hPa | 0 mm | - | 55 W/m² | - |
| 1777243717 | 27.78° C | 71% | 1011.2 hPa | 0 mm | - | 49 W/m² | - |
| 1777243120 | 27.78° C | 70% | 1011.1 hPa | 0 mm | - | 42 W/m² | - |
| 1777242516 | 28.33° C | 69% | 1011.1 hPa | 0 mm | - | 49 W/m² | - |
| 1777240716 | 28.33° C | 68% | 1011 hPa | 0 mm | - | 325 W/m² | - |
| 1777237716 | 29.44° C | 66% | 1010.9 hPa | 0 mm | - | 514 W/m² | - |
| 1777237414 | 29.44° C | 65% | 1010.9 hPa | 0 mm | - | 556 W/m² | - |
| 1777237319 | 29.44° C | 65% | 1011 hPa | 0 mm | - | 570 W/m² | - |
| 1777236517 | 30° C | 65% | 1010.9 hPa | 0 mm | - | 580 W/m² | - |
| 1777232605 | 29.44° C | 69% | 1011.4 hPa | 0 mm | - | 667 W/m² | - |
| 1777232304 | 29.44° C | 67% | 1011.4 hPa | 0 mm | - | 696 W/m² | - |
| 1777231299 | 29.44° C | 66% | 1011.4 hPa | 0 mm | - | 837 W/m² | - |
| 1777229593 | 30° C | 66% | 1011.7 hPa | 0 mm | - | 892 W/m² | - |
| 1777227785 | 29.44° C | 70% | 1011.9 hPa | 0 mm | - | 928 W/m² | - |
| 1777226581 | 29.44° C | 68% | 1012.2 hPa | 0 mm | - | 951 W/m² | - |
| 1777225963 | 30° C | 68% | 1012.2 hPa | 0 mm | - | 955 W/m² | - |
* Rain latest hour (hover to see other rain measurements)
** Current wind speed in m/s (hover to see current wind gust speed)